Decoded Metar for CYLL (LLOYDMINSTER in AB, CANADA) (IATA:YLL) | Meteo·Mobile Aviation Weather
aviador You're here:

CYLL Decoded Metar

LLOYDMINSTER in AB, CANADA
Report Time2018-09-18 21:00:00
UTC Time2018-09-18 21:48:55
Flight Rules vfr VFR
Wind290° at 12 kt
W.Decomp.*RWY 26: 11.6 kt HW 3.1 kt RCW
RWY 30: 10.9 kt HW 5.1 kt LCW
W.Rank290° ranks 3
Current wind is above 290° avg. (10.1)
Visibility9999 m
Phenomena:N/A
Clouds:Broken 035 Hf
Broken 110 Hf
Expected CloudBase > 3,200 ft AGL from Temp-Dew spread
Ceiling3,500 ft
Temp10°C (ISA -1)
Dew Point02°C (58% RH)
AAT4.0°C
QNH1019 hPa
Density Alt2,021 ft
Elevation2,195 ft
Report Wrong Elevation
Raw Report
CYLL 182100Z 29012KT 15SM BKN035 BKN110 10/02 A3009 RMK SC6AC1 TCU
EMBD SLP213=

Extra information for CYLL:More info

Metar Taf Metar & Taf Last 4 Metars F.Rules Stats Wind Profile Meteogram Temp Stats Airport Information Weather charts Add Link Nearby VenuesMetar ALERT Operation Metar Decoded Social comments